createdAt,value
2019-04-21T00:02:24.212Z,12.88
2019-04-21T00:04:58.000Z,12.75
2019-04-21T00:07:37.835Z,12.86
2019-04-21T00:10:13.652Z,12.82
2019-04-21T00:12:40.843Z,12.89
2019-04-21T00:15:11.222Z,12.80
2019-04-21T00:17:31.677Z,12.74
2019-04-21T00:20:15.737Z,12.73
2019-04-21T00:22:47.731Z,12.71
2019-04-21T00:25:25.321Z,12.50
2019-04-21T00:28:02.935Z,12.54
2019-04-21T00:30:34.098Z,12.46
2019-04-21T00:32:54.134Z,12.31
2019-04-21T00:35:19.575Z,12.31
2019-04-21T00:38:09.710Z,12.14
2019-04-21T00:40:43.235Z,12.00
2019-04-21T00:43:07.811Z,11.90
2019-04-21T00:45:37.625Z,12.11
2019-04-21T00:48:18.004Z,12.02
2019-04-21T00:51:14.211Z,12.05
2019-04-21T00:53:35.774Z,12.14
2019-04-21T00:56:03.428Z,11.88
2019-04-21T00:58:33.176Z,11.92
2019-04-21T01:01:03.209Z,11.91
2019-04-21T01:03:43.640Z,11.82
2019-04-21T01:06:08.226Z,11.90
2019-04-21T01:08:35.983Z,11.66
2019-04-21T01:11:10.059Z,11.82
2019-04-21T01:13:45.436Z,11.94
2019-04-21T01:16:18.757Z,11.95
2019-04-21T01:18:45.946Z,11.89
2019-04-21T01:20:54.469Z,11.85
2019-04-21T01:23:25.475Z,12.00
2019-04-21T01:26:08.046Z,11.89
2019-04-21T01:28:40.111Z,11.80
2019-04-21T01:31:17.516Z,11.88
2019-04-21T01:33:53.087Z,11.64
2019-04-21T01:36:17.739Z,11.55
2019-04-21T01:39:00.958Z,11.37
2019-04-21T01:41:35.089Z,11.55
2019-04-21T01:43:57.216Z,11.27
2019-04-21T01:46:29.640Z,11.36
2019-04-21T01:48:56.983Z,11.44
2019-04-21T01:51:38.486Z,11.40
2019-04-21T01:54:18.509Z,11.33
2019-04-21T01:56:47.890Z,11.28
2019-04-21T01:59:03.758Z,11.20
2019-04-21T02:01:46.030Z,11.10
2019-04-21T02:04:26.503Z,10.79
2019-04-21T02:06:54.651Z,10.94
2019-04-21T02:09:23.253Z,10.96
2019-04-21T02:12:00.067Z,11.03
2019-04-21T02:14:32.907Z,10.84
2019-04-21T02:17:00.531Z,10.80
2019-04-21T02:19:23.215Z,10.74
2019-04-21T02:21:56.695Z,10.81
2019-04-21T02:24:42.743Z,10.74
2019-04-21T02:27:08.644Z,10.62
2019-04-21T02:29:41.564Z,10.71
2019-04-21T02:32:18.014Z,10.51
2019-04-21T02:37:38.478Z,10.70
2019-04-21T02:40:00.361Z,10.65
2019-04-21T02:42:27.848Z,10.48
2019-04-21T02:47:38.756Z,10.60
2019-04-21T02:52:37.304Z,10.62
2019-04-21T02:55:18.000Z,10.58
2019-04-21T02:57:47.850Z,10.48
2019-04-21T03:02:54.501Z,10.38
2019-04-21T03:05:39.705Z,10.53
2019-04-21T03:08:03.498Z,10.41
2019-04-21T03:10:39.228Z,10.45
2019-04-21T03:13:08.931Z,10.39
2019-04-21T03:15:39.556Z,10.37
2019-04-21T03:18:10.796Z,10.17
2019-04-21T03:20:44.468Z,10.37
2019-04-21T03:26:00.799Z,10.26
2019-04-21T03:28:14.076Z,10.25
2019-04-21T03:34:05.636Z,10.15
2019-04-21T03:36:13.073Z,9.98
2019-04-21T03:38:27.003Z,10.12
2019-04-21T03:40:47.349Z,10.03
2019-04-21T03:46:01.188Z,10.08
2019-04-21T03:48:35.747Z,9.98
2019-04-21T03:50:58.999Z,9.98
2019-04-21T03:53:31.307Z,9.86
2019-04-21T03:56:12.423Z,9.82
2019-04-21T04:04:07.918Z,9.33
2019-04-21T04:07:05.730Z,9.42
2019-04-21T04:09:19.177Z,9.26
2019-04-21T04:11:55.178Z,9.47
2019-04-21T04:16:58.523Z,9.48
2019-04-21T04:19:30.520Z,9.55
2019-04-21T04:21:56.381Z,9.52
2019-04-21T04:25:01.984Z,9.66
2019-04-21T04:29:24.250Z,9.58
2019-04-21T04:31:47.500Z,9.68
2019-04-21T04:34:27.616Z,9.72
2019-04-21T04:37:05.394Z,9.60
2019-04-21T04:42:35.514Z,9.71
2019-04-21T04:45:01.620Z,9.75
2019-04-21T04:52:31.735Z,10.04
2019-04-21T04:55:03.768Z,10.05
2019-04-21T04:57:21.836Z,9.95
2019-04-21T05:02:37.718Z,10.00
2019-04-21T05:05:07.339Z,10.21
2019-04-21T05:10:11.702Z,10.40
2019-04-21T05:17:43.505Z,10.50
2019-04-21T05:22:43.715Z,10.85
2019-04-21T05:25:05.193Z,10.82
2019-04-21T05:27:52.476Z,10.95
2019-04-21T05:30:26.634Z,10.84
2019-04-21T05:33:03.932Z,11.08
2019-04-21T05:35:46.198Z,10.90
2019-04-21T05:38:22.325Z,10.94
2019-04-21T05:40:52.739Z,11.10
2019-04-21T05:43:35.257Z,11.21
2019-04-21T05:46:18.427Z,11.14
2019-04-21T05:48:39.426Z,11.36
2019-04-21T05:51:10.603Z,11.43
2019-04-21T05:53:42.597Z,11.57
2019-04-21T05:56:16.211Z,11.64
2019-04-21T05:58:53.676Z,11.76
2019-04-21T06:01:30.860Z,11.86
2019-04-21T06:04:00.230Z,12.01
2019-04-21T06:06:37.521Z,12.04
2019-04-21T06:09:11.107Z,12.20
2019-04-21T06:11:35.955Z,12.25
2019-04-21T06:14:08.263Z,12.40
2019-04-21T06:16:44.717Z,12.70
2019-04-21T06:19:14.513Z,12.80
2019-04-21T06:21:38.543Z,13.02
2019-04-21T06:24:15.685Z,13.08
2019-04-21T06:29:15.214Z,13.14
2019-04-21T06:32:12.745Z,13.31
2019-04-21T06:34:49.635Z,13.52
2019-04-21T06:37:05.825Z,13.73
2019-04-21T06:39:31.715Z,14.04
2019-04-21T06:42:05.734Z,14.30
2019-04-21T06:44:38.817Z,14.37
2019-04-21T06:47:16.303Z,14.51
2019-04-21T06:49:41.232Z,14.75
2019-04-21T06:52:29.888Z,14.81
2019-04-21T06:54:47.069Z,15.00
2019-04-21T06:57:16.502Z,15.27
2019-04-21T06:59:43.367Z,15.41
2019-04-21T07:02:36.256Z,15.61
2019-04-21T07:04:55.044Z,15.62
2019-04-21T07:07:26.105Z,15.70
2019-04-21T07:09:58.483Z,16.10
2019-04-21T07:12:22.067Z,16.20
2019-04-21T07:14:58.932Z,16.33
2019-04-21T07:17:28.160Z,16.42
2019-04-21T07:20:10.034Z,16.50
2019-04-21T07:22:37.306Z,16.85
2019-04-21T07:25:11.648Z,17.14
2019-04-21T07:27:39.707Z,17.33
2019-04-21T07:30:17.696Z,17.51
2019-04-21T07:32:45.631Z,17.69
2019-04-21T07:35:19.566Z,17.82
2019-04-21T07:37:41.510Z,17.87
2019-04-21T07:40:09.414Z,17.90
2019-04-21T07:42:42.943Z,18.10
2019-04-21T07:45:13.010Z,18.27
2019-04-21T07:48:14.340Z,18.30
2019-04-21T07:50:45.468Z,18.40
2019-04-21T07:53:22.583Z,18.55
2019-04-21T07:55:32.632Z,18.79
2019-04-21T07:58:33.441Z,19.01
2019-04-21T08:00:51.389Z,19.20
2019-04-21T08:03:30.359Z,19.43
2019-04-21T08:05:58.614Z,19.59
2019-04-21T08:08:26.332Z,19.71
2019-04-21T08:10:58.056Z,19.71
2019-04-21T08:13:39.219Z,19.94
2019-04-21T08:16:04.707Z,20.14
2019-04-21T08:18:39.983Z,20.36
2019-04-21T08:21:08.595Z,20.53
2019-04-21T08:23:37.008Z,20.73
2019-04-21T08:26:07.964Z,20.79
2019-04-21T08:28:49.372Z,20.98
2019-04-21T08:31:14.601Z,21.27
2019-04-21T08:33:47.012Z,21.47
2019-04-21T08:36:28.419Z,21.57
2019-04-21T08:38:48.040Z,21.89
2019-04-21T08:41:18.488Z,22.04
2019-04-21T08:44:04.928Z,22.17
2019-04-21T08:46:23.969Z,22.40
2019-04-21T08:48:55.350Z,22.40
2019-04-21T08:54:16.523Z,22.94
2019-04-21T08:56:49.568Z,23.26
2019-04-21T08:59:38.364Z,23.30
2019-04-21T09:02:08.933Z,23.39
2019-04-21T09:04:34.121Z,23.35
2019-04-21T09:07:12.897Z,23.52
2019-04-21T09:09:44.461Z,23.86
2019-04-21T09:12:12.278Z,24.12
2019-04-21T09:14:44.764Z,24.35
2019-04-21T09:17:12.108Z,24.72
2019-04-21T09:20:07.999Z,24.70
2019-04-21T09:22:19.574Z,24.94
2019-04-21T09:24:53.174Z,25.24
2019-04-21T09:27:20.757Z,25.43
2019-04-21T09:29:39.409Z,25.84
2019-04-21T09:32:13.580Z,26.10
2019-04-21T09:34:43.354Z,26.04
2019-04-21T09:37:18.980Z,26.24
2019-04-21T09:39:46.450Z,26.16
2019-04-21T09:42:14.399Z,26.31
2019-04-21T09:44:47.734Z,26.50
2019-04-21T09:47:21.289Z,26.44
2019-04-21T09:49:47.735Z,26.48
2019-04-21T09:52:21.018Z,26.63
2019-04-21T09:54:58.592Z,26.81
2019-04-21T09:57:32.761Z,26.54
2019-04-21T10:00:03.640Z,26.87
2019-04-21T10:02:34.143Z,27.17
2019-04-21T10:04:54.987Z,27.53
2019-04-21T10:07:31.854Z,27.76
2019-04-21T10:09:58.130Z,27.82
2019-04-21T10:12:28.722Z,27.92
2019-04-21T10:14:59.442Z,28.04
2019-04-21T10:17:33.050Z,27.69
2019-04-21T10:20:03.511Z,26.48
2019-04-21T10:22:33.212Z,26.42
2019-04-21T10:25:03.091Z,27.32
2019-04-21T10:27:32.763Z,27.89
2019-04-21T10:30:03.632Z,27.47
2019-04-21T10:32:34.466Z,26.97
2019-04-21T10:35:07.503Z,27.10
2019-04-21T10:37:47.363Z,27.68
2019-04-21T10:40:11.759Z,28.36
2019-04-21T10:42:42.486Z,28.29
2019-04-21T10:45:14.794Z,28.28
2019-04-21T10:47:45.044Z,27.96
2019-04-21T10:50:16.307Z,27.68
2019-04-21T10:53:00.714Z,27.33
2019-04-21T10:55:48.556Z,27.86
2019-04-21T10:58:16.203Z,28.19
2019-04-21T11:00:48.455Z,28.75
2019-04-21T11:03:26.702Z,29.26
2019-04-21T11:05:58.893Z,28.77
2019-04-21T11:08:35.414Z,28.52
2019-04-21T11:11:01.634Z,27.66
2019-04-21T11:13:37.327Z,27.60
2019-04-21T11:16:07.123Z,27.19
2019-04-21T11:18:37.819Z,27.29
2019-04-21T11:21:09.218Z,27.30
2019-04-21T11:23:40.338Z,28.06
2019-04-21T11:26:11.882Z,28.67
2019-04-21T11:28:43.267Z,28.39
2019-04-21T11:31:13.339Z,28.35
2019-04-21T11:33:45.285Z,29.22
2019-04-21T11:36:15.717Z,29.70
2019-04-21T11:39:19.324Z,29.53
2019-04-21T11:41:35.963Z,29.60
2019-04-21T11:44:05.766Z,29.79
2019-04-21T11:46:36.288Z,29.59
2019-04-21T11:49:10.384Z,29.73
2019-04-21T11:51:40.757Z,29.88
2019-04-21T11:54:10.923Z,30.03
2019-04-21T11:56:41.080Z,30.19
2019-04-21T11:59:11.980Z,29.43
2019-04-21T12:01:42.052Z,29.87
2019-04-21T12:04:13.963Z,29.98
2019-04-21T12:06:47.244Z,29.47
2019-04-21T12:09:15.089Z,29.99
2019-04-21T12:11:45.321Z,30.55
2019-04-21T12:14:16.314Z,30.51
2019-04-21T12:16:46.779Z,30.50
2019-04-21T12:19:20.769Z,29.54
2019-04-21T12:22:04.246Z,29.30
2019-04-21T12:24:22.580Z,29.54
2019-04-21T12:26:52.264Z,30.16
2019-04-21T12:29:22.789Z,30.16
2019-04-21T12:32:10.201Z,30.23
2019-04-21T12:34:41.726Z,29.87
2019-04-21T12:37:12.922Z,29.59
2019-04-21T12:39:43.040Z,30.01
2019-04-21T12:42:14.453Z,30.19
2019-04-21T12:44:45.417Z,30.71
2019-04-21T12:47:16.252Z,30.73
2019-04-21T12:49:47.805Z,30.89
2019-04-21T12:52:17.759Z,30.57
2019-04-21T12:54:48.038Z,30.07
2019-04-21T12:57:19.146Z,29.79
2019-04-21T12:59:50.835Z,29.41
2019-04-21T13:02:21.960Z,28.90
2019-04-21T13:04:53.005Z,28.54
2019-04-21T13:07:23.554Z,28.69
2019-04-21T13:09:55.158Z,28.66
2019-04-21T13:12:44.038Z,29.26
2019-04-21T13:15:15.685Z,29.23
2019-04-21T13:17:47.228Z,28.83
2019-04-21T13:20:19.132Z,27.85
2019-04-21T13:22:50.267Z,27.86
2019-04-21T13:25:20.204Z,28.61
2019-04-21T13:27:49.873Z,29.06
2019-04-21T13:30:20.223Z,28.85
2019-04-21T13:32:51.363Z,29.21
2019-04-21T13:35:21.323Z,28.99
2019-04-21T13:37:52.326Z,28.84
2019-04-21T13:40:39.898Z,29.06
2019-04-21T13:42:58.461Z,29.12
2019-04-21T13:45:27.746Z,29.37
2019-04-21T13:47:58.665Z,29.12
2019-04-21T13:50:31.144Z,29.11
2019-04-21T13:53:00.875Z,29.00
2019-04-21T13:55:31.774Z,29.24
2019-04-21T13:58:02.073Z,29.41
2019-04-21T14:00:33.503Z,29.10
2019-04-21T14:03:04.669Z,29.09
2019-04-21T14:05:36.009Z,29.16
2019-04-21T14:08:07.384Z,29.07
2019-04-21T14:10:37.921Z,28.79
2019-04-21T14:13:08.637Z,29.11
2019-04-21T14:15:39.977Z,28.40
2019-04-21T14:18:13.015Z,27.85
2019-04-21T14:20:43.025Z,27.96
2019-04-21T14:23:21.082Z,28.08
2019-04-21T14:25:44.148Z,27.95
2019-04-21T14:28:15.693Z,28.12
2019-04-21T14:30:46.182Z,27.93
2019-04-21T14:33:16.135Z,27.96
2019-04-21T14:35:47.118Z,28.17
2019-04-21T14:38:18.526Z,27.83
2019-04-21T14:40:48.245Z,27.68
2019-04-21T14:43:18.498Z,27.77
2019-04-21T14:45:52.921Z,27.89
2019-04-21T14:48:41.080Z,27.75
2019-04-21T14:51:22.749Z,27.64
2019-04-21T14:53:56.300Z,27.41
2019-04-21T14:56:27.111Z,27.42
2019-04-21T14:58:59.021Z,27.34
2019-04-21T15:01:28.336Z,27.47
2019-04-21T15:03:59.782Z,27.39
2019-04-21T15:06:29.676Z,27.39
2019-04-21T15:08:59.300Z,27.28
2019-04-21T15:11:29.872Z,26.80
2019-04-21T15:13:59.851Z,26.47
2019-04-21T15:16:29.454Z,26.36
2019-04-21T15:18:59.982Z,26.48
2019-04-21T15:21:29.687Z,26.84
2019-04-21T15:24:00.396Z,26.92
2019-04-21T15:26:30.447Z,27.11
2019-04-21T15:29:00.299Z,27.12
2019-04-21T15:31:34.721Z,26.55
2019-04-21T15:34:01.371Z,26.38
2019-04-21T15:36:33.453Z,26.33
2019-04-21T15:39:03.611Z,26.52
2019-04-21T15:41:34.438Z,26.49
2019-04-21T15:44:07.852Z,26.49
2019-04-21T15:46:37.724Z,26.53
2019-04-21T15:49:09.202Z,26.63
2019-04-21T15:51:40.007Z,26.49
2019-04-21T15:54:10.803Z,26.19
2019-04-21T15:56:44.869Z,26.01
2019-04-21T15:59:33.157Z,26.06
2019-04-21T16:02:08.340Z,26.00
2019-04-21T16:04:38.928Z,25.88
2019-04-21T16:07:08.913Z,25.82
2019-04-21T16:09:39.856Z,25.92
2019-04-21T16:12:09.887Z,25.75
2019-04-21T16:14:40.785Z,25.56
2019-04-21T16:17:11.686Z,25.58
2019-04-21T16:19:57.367Z,25.07
2019-04-21T16:22:30.629Z,25.15
2019-04-21T16:25:00.951Z,25.30
2019-04-21T16:27:30.753Z,25.36
2019-04-21T16:30:01.980Z,25.39
2019-04-21T16:32:32.239Z,25.53
2019-04-21T16:35:07.166Z,25.31
2019-04-21T16:37:33.599Z,25.59
2019-04-21T16:40:03.508Z,25.79
2019-04-21T16:42:34.169Z,25.60
2019-04-21T16:45:07.508Z,25.46
2019-04-21T16:47:37.986Z,25.53
2019-04-21T16:50:11.711Z,25.36
2019-04-21T16:52:45.846Z,25.33
2019-04-21T16:55:24.635Z,25.25
2019-04-21T16:58:04.464Z,25.04
2019-04-21T17:00:36.370Z,24.91
2019-04-21T17:03:00.687Z,24.90
2019-04-21T17:05:32.129Z,24.95
2019-04-21T17:08:03.968Z,25.04
2019-04-21T17:10:34.957Z,25.02
2019-04-21T17:13:06.124Z,24.91
2019-04-21T17:15:58.275Z,24.77
2019-04-21T17:18:23.163Z,24.74
2019-04-21T17:20:46.239Z,24.73
2019-04-21T17:23:13.474Z,24.67
2019-04-21T17:25:43.542Z,24.69
2019-04-21T17:28:13.691Z,24.66
2019-04-21T17:30:44.350Z,24.40
2019-04-21T17:33:16.043Z,24.39
2019-04-21T17:35:46.827Z,24.39
2019-04-21T17:38:18.415Z,24.26
2019-04-21T17:40:49.451Z,24.22
2019-04-21T17:43:21.795Z,23.99
2019-04-21T17:45:53.120Z,23.99
2019-04-21T17:48:23.343Z,23.92
2019-04-21T17:51:01.299Z,24.01
2019-04-21T17:53:42.952Z,23.98
2019-04-21T17:56:29.616Z,23.85
2019-04-21T17:59:08.659Z,23.70
2019-04-21T18:01:40.836Z,23.82
2019-04-21T18:04:10.621Z,23.70
2019-04-21T18:06:49.098Z,23.58
2019-04-21T18:09:28.707Z,23.57
2019-04-21T18:11:59.449Z,23.56
2019-04-21T18:14:11.425Z,23.38
2019-04-21T18:16:44.809Z,23.27
2019-04-21T18:19:12.997Z,23.19
2019-04-21T18:22:04.824Z,23.20
2019-04-21T18:24:42.253Z,23.04
2019-04-21T18:27:09.184Z,22.76
2019-04-21T18:29:36.988Z,22.72
2019-04-21T18:32:08.333Z,22.76
2019-04-21T18:34:52.364Z,22.77
2019-04-21T18:37:26.136Z,22.59
2019-04-21T18:40:03.784Z,22.53
2019-04-21T18:42:42.178Z,22.56
2019-04-21T18:45:48.080Z,22.41
2019-04-21T18:48:19.418Z,22.23
2019-04-21T18:50:50.945Z,22.03
2019-04-21T18:53:34.086Z,21.88
2019-04-21T18:55:50.489Z,21.87
2019-04-21T18:58:18.135Z,21.38
2019-04-21T19:00:48.768Z,21.27
2019-04-21T19:03:27.034Z,21.08
2019-04-21T19:05:56.647Z,20.74
2019-04-21T19:08:40.578Z,20.74
2019-04-21T19:11:13.657Z,20.56
2019-04-21T19:14:17.512Z,20.61
2019-04-21T19:16:41.523Z,20.30
2019-04-21T19:19:23.568Z,20.12
2019-04-21T19:21:29.923Z,20.14
2019-04-21T19:24:18.353Z,20.23
2019-04-21T19:26:46.800Z,19.98
2019-04-21T19:29:20.018Z,20.02
2019-04-21T19:34:07.716Z,19.78
2019-04-21T19:36:32.536Z,19.67
2019-04-21T19:39:10.737Z,19.77
2019-04-21T19:41:45.814Z,19.54
2019-04-21T19:44:21.707Z,19.73
2019-04-21T19:46:56.702Z,19.64
2019-04-21T19:49:35.091Z,19.63
2019-04-21T19:51:51.104Z,19.39
2019-04-21T19:54:21.141Z,19.30
2019-04-21T19:56:43.038Z,19.20
2019-04-21T19:59:23.544Z,19.15
2019-04-21T20:01:47.672Z,19.14
2019-04-21T20:04:16.749Z,19.07
2019-04-21T20:06:58.412Z,18.99
2019-04-21T20:09:38.000Z,18.97
2019-04-21T20:12:05.109Z,18.96
2019-04-21T20:17:08.299Z,18.86
2019-04-21T20:19:26.549Z,18.88
2019-04-21T20:21:56.961Z,18.83
2019-04-21T20:24:30.285Z,18.87
2019-04-21T20:27:06.907Z,18.58
2019-04-21T20:29:48.828Z,18.70
2019-04-21T20:32:26.406Z,18.47
2019-04-21T20:34:56.619Z,18.59
2019-04-21T20:37:21.278Z,18.46
2019-04-21T20:39:46.288Z,18.56
2019-04-21T20:42:22.600Z,18.52
2019-04-21T20:45:17.322Z,18.41
2019-04-21T20:47:23.179Z,18.34
2019-04-21T20:49:56.821Z,18.16
2019-04-21T20:52:35.729Z,18.22
2019-04-21T20:54:59.930Z,18.32
2019-04-21T20:57:30.164Z,18.06
2019-04-21T21:00:05.835Z,17.89
2019-04-21T21:02:49.342Z,17.84
2019-04-21T21:05:04.656Z,17.85
2019-04-21T21:07:45.820Z,17.67
2019-04-21T21:10:16.631Z,17.67
2019-04-21T21:12:51.342Z,17.78
2019-04-21T21:15:10.083Z,17.80
2019-04-21T21:18:04.327Z,17.68
2019-04-21T21:20:29.478Z,17.76
2019-04-21T21:22:50.860Z,17.62
2019-04-21T21:25:36.631Z,17.56
2019-04-21T21:27:54.308Z,17.54
2019-04-21T21:30:31.282Z,17.65
2019-04-21T21:33:05.561Z,17.52
2019-04-21T21:35:31.135Z,17.45
2019-04-21T21:38:08.369Z,17.43
2019-04-21T21:40:36.223Z,17.39
2019-04-21T21:42:53.380Z,17.47
2019-04-21T21:45:26.934Z,17.47
2019-04-21T21:48:17.550Z,17.44
2019-04-21T21:50:38.556Z,17.37
2019-04-21T21:53:07.612Z,17.37
2019-04-21T21:55:32.800Z,17.24
2019-04-21T21:58:03.611Z,17.43
2019-04-21T22:00:36.963Z,17.42
2019-04-21T22:03:17.348Z,17.37
2019-04-21T22:05:45.575Z,17.44
2019-04-21T22:08:12.233Z,17.37
2019-04-21T22:10:43.306Z,17.48
2019-04-21T22:13:17.748Z,17.42
2019-04-21T22:15:48.301Z,17.34
2019-04-21T22:18:34.894Z,17.31
2019-04-21T22:21:03.521Z,17.40
2019-04-21T22:23:29.533Z,17.34
2019-04-21T22:25:51.422Z,17.10
2019-04-21T22:28:22.127Z,16.97
2019-04-21T22:30:53.646Z,17.04
2019-04-21T22:33:23.512Z,16.95
2019-04-21T22:36:02.235Z,16.89
2019-04-21T22:38:40.949Z,16.97
2019-04-21T22:41:10.019Z,16.96
2019-04-21T22:43:36.676Z,16.75
2019-04-21T22:46:01.178Z,16.80
2019-04-21T22:48:30.924Z,16.82
2019-04-21T22:51:00.730Z,16.64
2019-04-21T22:53:39.537Z,16.74
2019-04-21T22:56:10.908Z,16.66
2019-04-21T22:58:37.347Z,16.59
2019-04-21T23:01:07.015Z,16.56
2019-04-21T23:03:40.178Z,16.67
2019-04-21T23:06:16.183Z,16.62
2019-04-21T23:08:45.318Z,16.60
2019-04-21T23:11:14.140Z,16.51
2019-04-21T23:13:45.019Z,16.27
2019-04-21T23:16:22.804Z,16.34
2019-04-21T23:19:09.041Z,16.19
2019-04-21T23:21:41.368Z,16.28
2019-04-21T23:24:08.449Z,16.30
2019-04-21T23:26:39.420Z,16.29
2019-04-21T23:29:13.997Z,16.27
2019-04-21T23:31:47.601Z,16.25
2019-04-21T23:34:00.064Z,16.32
2019-04-21T23:36:33.405Z,16.21
2019-04-21T23:39:07.026Z,16.18
2019-04-21T23:41:42.325Z,16.20
2019-04-21T23:44:11.369Z,16.09
2019-04-21T23:46:39.162Z,16.06
2019-04-21T23:49:22.872Z,16.08
2019-04-21T23:51:50.056Z,15.93
2019-04-21T23:54:13.325Z,15.91
2019-04-21T23:56:46.238Z,15.80
2019-04-21T23:59:16.505Z,15.87
